createdAt,value
2019-05-11T00:02:28.786Z,13.93
2019-05-11T00:05:00.208Z,13.88
2019-05-11T00:07:31.590Z,13.85
2019-05-11T00:10:02.941Z,13.80
2019-05-11T00:12:35.812Z,13.78
2019-05-11T00:15:07.649Z,13.74
2019-05-11T00:17:38.924Z,13.71
2019-05-11T00:20:10.393Z,13.67
2019-05-11T00:22:41.697Z,13.64
2019-05-11T00:25:13.178Z,13.59
2019-05-11T00:27:44.505Z,13.54
2019-05-11T00:30:16.054Z,13.50
2019-05-11T00:32:47.475Z,13.48
2019-05-11T00:35:18.819Z,13.44
2019-05-11T00:37:50.100Z,13.40
2019-05-11T00:40:21.356Z,13.37
2019-05-11T00:42:52.593Z,13.33
2019-05-11T00:45:23.915Z,13.31
2019-05-11T00:47:55.251Z,13.29
2019-05-11T00:50:38.824Z,13.26
2019-05-11T00:52:59.592Z,13.24
2019-05-11T00:55:30.880Z,13.21
2019-05-11T00:58:02.120Z,13.18
2019-05-11T01:00:33.473Z,13.16
2019-05-11T01:03:05.067Z,13.14
2019-05-11T01:05:36.517Z,13.12
2019-05-11T01:08:07.797Z,13.10
2019-05-11T01:10:42.528Z,13.08
2019-05-11T01:13:12.065Z,13.06
2019-05-11T01:15:43.369Z,13.03
2019-05-11T01:18:14.641Z,12.99
2019-05-11T01:20:45.990Z,12.94
2019-05-11T01:23:17.273Z,12.91
2019-05-11T01:25:48.581Z,12.90
2019-05-11T01:28:19.851Z,12.88
2019-05-11T01:30:51.170Z,12.87
2019-05-11T01:33:22.492Z,12.85
2019-05-11T01:35:53.812Z,12.81
2019-05-11T01:38:26.042Z,12.78
2019-05-11T01:40:58.997Z,12.76
2019-05-11T01:43:30.302Z,12.75
2019-05-11T01:46:01.583Z,12.73
2019-05-11T01:48:32.948Z,12.72
2019-05-11T01:51:04.198Z,12.70
2019-05-11T01:53:35.552Z,12.69
2019-05-11T01:56:06.777Z,12.68
2019-05-11T01:58:38.143Z,12.68
2019-05-11T02:01:13.076Z,12.67
2019-05-11T02:03:44.359Z,12.66
2019-05-11T02:06:15.637Z,12.66
2019-05-11T02:08:47.012Z,12.66
2019-05-11T02:11:18.421Z,12.65
2019-05-11T02:13:49.900Z,12.64
2019-05-11T02:16:21.263Z,12.64
2019-05-11T02:18:52.524Z,12.64
2019-05-11T02:21:23.796Z,12.64
2019-05-11T02:23:55.104Z,12.62
2019-05-11T02:26:26.379Z,12.60
2019-05-11T02:28:57.680Z,12.58
2019-05-11T02:31:28.958Z,12.58
2019-05-11T02:34:00.223Z,12.57
2019-05-11T02:36:31.482Z,12.56
2019-05-11T02:39:02.864Z,12.53
2019-05-11T02:41:37.218Z,12.54
2019-05-11T02:44:08.145Z,12.52
2019-05-11T02:46:40.521Z,12.50
2019-05-11T02:49:11.767Z,12.48
2019-05-11T02:51:43.642Z,12.48
2019-05-11T02:54:14.972Z,12.47
2019-05-11T02:56:46.358Z,12.46
2019-05-11T02:59:17.629Z,12.43
2019-05-11T03:01:48.926Z,12.43
2019-05-11T03:04:20.212Z,12.42
2019-05-11T03:06:51.465Z,12.41
2019-05-11T03:09:22.731Z,12.42
2019-05-11T03:11:56.289Z,12.41
2019-05-11T03:14:26.931Z,12.41
2019-05-11T03:17:29.515Z,12.40
2019-05-11T03:20:00.808Z,12.38
2019-05-11T03:22:32.121Z,12.38
2019-05-11T03:25:03.448Z,12.37
2019-05-11T03:27:34.704Z,12.36
2019-05-11T03:30:06.718Z,12.36
2019-05-11T03:32:38.042Z,12.35
2019-05-11T03:35:09.318Z,12.34
2019-05-11T03:37:40.650Z,12.34
2019-05-11T03:40:12.210Z,12.32
2019-05-11T03:42:43.681Z,12.34
2019-05-11T03:45:15.006Z,12.35
2019-05-11T03:47:46.301Z,12.35
2019-05-11T03:50:17.686Z,12.37
2019-05-11T03:52:49.875Z,12.39
2019-05-11T03:55:21.184Z,12.39
2019-05-11T03:57:52.567Z,12.41
2019-05-11T04:00:23.969Z,12.42
2019-05-11T04:02:55.423Z,12.43
2019-05-11T04:05:26.735Z,12.43
2019-05-11T04:07:58.057Z,12.44
2019-05-11T04:10:29.443Z,12.46
2019-05-11T04:13:00.730Z,12.47
2019-05-11T04:15:33.320Z,12.47
2019-05-11T04:18:04.586Z,12.48
2019-05-11T04:20:35.888Z,12.50
2019-05-11T04:23:07.164Z,12.51
2019-05-11T04:25:38.431Z,12.50
2019-05-11T04:28:09.767Z,12.50
2019-05-11T04:30:41.063Z,12.51
2019-05-11T04:33:12.383Z,12.54
2019-05-11T04:35:43.742Z,12.56
2019-05-11T04:38:15.215Z,12.59
2019-05-11T04:40:46.525Z,12.61
2019-05-11T04:43:17.767Z,12.62
2019-05-11T04:45:49.051Z,12.65
2019-05-11T04:48:20.320Z,12.68
2019-05-11T04:50:51.616Z,12.71
2019-05-11T04:53:22.907Z,12.73
2019-05-11T04:55:54.216Z,12.77
2019-05-11T04:58:25.548Z,12.80
2019-05-11T05:00:56.860Z,12.81
2019-05-11T05:03:40.204Z,12.83
2019-05-11T05:06:20.866Z,12.84
2019-05-11T05:08:34.135Z,12.79
2019-05-11T05:11:05.434Z,12.79
2019-05-11T05:13:36.819Z,12.79
2019-05-11T05:16:08.138Z,12.81
2019-05-11T05:18:39.472Z,12.81
2019-05-11T05:21:10.743Z,12.83
2019-05-11T05:23:42.048Z,12.86
2019-05-11T05:26:13.375Z,12.91
2019-05-11T05:28:45.805Z,12.95
2019-05-11T05:31:17.303Z,12.98
2019-05-11T05:33:48.566Z,13.03
2019-05-11T05:36:19.809Z,13.08
2019-05-11T05:38:51.067Z,13.11
2019-05-11T05:41:22.328Z,13.14
2019-05-11T05:43:53.608Z,13.16
2019-05-11T05:46:24.904Z,13.18
2019-05-11T05:48:56.304Z,13.18
2019-05-11T05:51:27.716Z,13.19
2019-05-11T05:53:59.117Z,13.21
2019-05-11T05:56:30.409Z,13.23
2019-05-11T05:59:01.683Z,13.28
2019-05-11T06:01:32.952Z,13.31
2019-05-11T06:04:05.356Z,13.35
2019-05-11T06:06:36.651Z,13.36
2019-05-11T06:09:08.169Z,13.39
2019-05-11T06:11:39.447Z,13.40
2019-05-11T06:14:10.714Z,13.41
2019-05-11T06:16:42.018Z,13.40
2019-05-11T06:19:13.330Z,13.40
2019-05-11T06:21:45.656Z,13.42
2019-05-11T06:24:16.983Z,13.43
2019-05-11T06:26:48.273Z,13.45
2019-05-11T06:29:21.629Z,13.46
2019-05-11T06:31:52.521Z,13.48
2019-05-11T06:34:23.961Z,13.49
2019-05-11T06:36:55.282Z,13.51
2019-05-11T06:39:27.012Z,13.54
2019-05-11T06:41:58.366Z,13.56
2019-05-11T06:44:29.667Z,13.59
2019-05-11T06:47:00.980Z,13.62
2019-05-11T06:49:32.274Z,13.64
2019-05-11T06:52:03.502Z,13.66
2019-05-11T06:54:34.836Z,13.65
2019-05-11T06:57:06.090Z,13.66
2019-05-11T06:59:37.445Z,13.66
2019-05-11T07:02:08.695Z,13.66
2019-05-11T07:04:39.987Z,13.66
2019-05-11T07:07:11.238Z,13.67
2019-05-11T07:09:42.491Z,13.68
2019-05-11T07:12:13.864Z,13.69
2019-05-11T07:14:46.166Z,13.71
2019-05-11T07:17:17.461Z,13.71
2019-05-11T07:19:48.739Z,13.71
2019-05-11T07:22:20.995Z,13.72
2019-05-11T07:24:52.282Z,13.73
2019-05-11T07:27:23.649Z,13.71
2019-05-11T07:29:55.421Z,13.72
2019-05-11T07:32:29.202Z,13.70
2019-05-11T07:34:59.814Z,13.70
2019-05-11T07:37:32.694Z,13.67
2019-05-11T07:40:04.207Z,13.65
2019-05-11T07:42:37.679Z,13.66
2019-05-11T07:45:09.230Z,13.64
2019-05-11T07:47:40.509Z,13.62
2019-05-11T07:50:12.035Z,13.60
2019-05-11T07:52:43.623Z,13.59
2019-05-11T07:55:14.893Z,13.57
2019-05-11T07:57:48.128Z,13.54
2019-05-11T08:00:19.559Z,13.52
2019-05-11T08:02:50.881Z,13.51
2019-05-11T08:05:22.152Z,13.50
2019-05-11T08:07:53.428Z,13.48
2019-05-11T08:10:24.719Z,13.48
2019-05-11T08:12:58.557Z,13.47
2019-05-11T08:15:29.068Z,13.44
2019-05-11T08:18:00.448Z,13.43
2019-05-11T08:20:31.779Z,13.42
2019-05-11T08:23:03.121Z,13.39
2019-05-11T08:25:34.347Z,13.37
2019-05-11T08:28:09.484Z,13.34
2019-05-11T08:30:38.684Z,13.32
2019-05-11T08:33:09.950Z,13.33
2019-05-11T08:35:41.501Z,13.31
2019-05-11T08:38:12.752Z,13.30
2019-05-11T08:40:44.135Z,13.28
2019-05-11T08:43:17.810Z,13.27
2019-05-11T08:45:48.668Z,13.26
2019-05-11T08:48:20.014Z,13.26
2019-05-11T08:50:51.303Z,13.24
2019-05-11T08:53:22.605Z,13.23
2019-05-11T08:55:53.932Z,13.21
2019-05-11T08:58:27.629Z,13.22
2019-05-11T09:00:58.497Z,13.21
2019-05-11T09:03:29.711Z,13.21
2019-05-11T09:06:01.112Z,13.22
2019-05-11T09:08:32.324Z,13.24
2019-05-11T09:11:03.645Z,13.24
2019-05-11T09:13:34.909Z,13.26
2019-05-11T09:16:07.860Z,13.26
2019-05-11T09:18:39.320Z,13.29
2019-05-11T09:21:10.583Z,13.32
2019-05-11T09:23:42.302Z,13.35
2019-05-11T09:26:13.607Z,13.34
2019-05-11T09:28:44.925Z,13.37
2019-05-11T09:31:18.643Z,13.37
2019-05-11T09:33:49.271Z,13.40
2019-05-11T09:36:20.648Z,13.41
2019-05-11T09:38:51.943Z,13.41
2019-05-11T09:41:24.191Z,13.39
2019-05-11T09:43:55.428Z,13.36
2019-05-11T09:46:27.915Z,13.35
2019-05-11T09:48:59.433Z,13.39
2019-05-11T09:51:30.762Z,13.39
2019-05-11T09:54:02.045Z,13.37
2019-05-11T09:56:33.348Z,13.32
2019-05-11T09:59:04.629Z,13.27
2019-05-11T10:01:37.807Z,13.20
2019-05-11T10:04:09.202Z,13.15
2019-05-11T10:06:40.789Z,13.10
2019-05-11T10:09:12.177Z,13.06
2019-05-11T10:11:43.500Z,13.04
2019-05-11T10:14:14.809Z,13.00
2019-05-11T10:16:46.088Z,12.95
2019-05-11T10:19:18.025Z,12.91
2019-05-11T10:21:49.465Z,12.89
2019-05-11T10:24:20.689Z,12.89
2019-05-11T10:26:51.964Z,12.90
2019-05-11T10:29:23.254Z,12.92
2019-05-11T10:31:54.682Z,12.90
2019-05-11T10:34:28.320Z,12.87
2019-05-11T10:36:58.960Z,12.84
2019-05-11T10:39:30.214Z,12.86
2019-05-11T10:42:01.525Z,12.87
2019-05-11T10:44:32.823Z,12.90
2019-05-11T10:47:04.188Z,12.89
2019-05-11T10:49:37.863Z,12.90
2019-05-11T10:52:09.810Z,12.87
2019-05-11T10:54:41.404Z,12.85
2019-05-11T10:57:13.331Z,12.84
2019-05-11T10:59:44.721Z,12.84
2019-05-11T11:02:18.349Z,12.81
2019-05-11T11:04:49.237Z,12.78
2019-05-11T11:07:20.565Z,12.78
2019-05-11T11:09:51.838Z,12.79
2019-05-11T11:12:23.359Z,12.78
2019-05-11T11:14:55.690Z,12.80
2019-05-11T11:17:28.726Z,12.80
2019-05-11T11:20:00.383Z,12.80
2019-05-11T11:22:39.915Z,12.79
2019-05-11T11:25:04.885Z,12.76
2019-05-11T11:27:38.071Z,12.75
2019-05-11T11:30:09.428Z,12.73
2019-05-11T11:32:40.783Z,12.72
2019-05-11T11:35:12.306Z,12.69
2019-05-11T11:37:43.717Z,12.68
2019-05-11T11:40:17.266Z,12.69
2019-05-11T11:42:48.168Z,12.67
2019-05-11T11:45:19.538Z,12.66
2019-05-11T11:47:50.827Z,12.67
2019-05-11T11:50:22.363Z,12.69
2019-05-11T11:52:53.727Z,12.71
2019-05-11T11:55:25.037Z,12.75
2019-05-11T11:57:58.637Z,12.74
2019-05-11T12:00:29.512Z,12.71
2019-05-11T12:03:01.278Z,12.74
2019-05-11T12:05:32.712Z,12.73
2019-05-11T12:08:03.993Z,12.71
2019-05-11T12:10:35.299Z,12.71
2019-05-11T12:13:08.656Z,12.73
2019-05-11T12:15:39.741Z,12.76
2019-05-11T12:18:10.994Z,12.78
2019-05-11T12:20:42.369Z,12.78
2019-05-11T12:23:13.627Z,12.80
2019-05-11T12:25:45.002Z,12.79
2019-05-11T12:28:18.234Z,12.81
2019-05-11T12:30:49.264Z,12.83
2019-05-11T12:33:20.615Z,12.86
2019-05-11T12:35:51.978Z,12.87
2019-05-11T12:38:23.332Z,12.85
2019-05-11T12:40:54.590Z,12.85
2019-05-11T12:43:27.756Z,12.86
2019-05-11T12:45:58.865Z,12.91
2019-05-11T12:48:30.117Z,12.90
2019-05-11T12:51:01.444Z,12.92
2019-05-11T12:53:32.806Z,12.93
2019-05-11T12:56:04.245Z,12.94
2019-05-11T12:58:35.508Z,12.97
2019-05-11T13:01:08.953Z,12.98
2019-05-11T13:03:39.998Z,12.96
2019-05-11T13:06:11.316Z,12.94
2019-05-11T13:08:42.708Z,12.93
2019-05-11T13:11:13.964Z,12.91
2019-05-11T13:13:45.288Z,12.92
2019-05-11T13:16:18.375Z,12.93
2019-05-11T13:18:49.499Z,12.93
2019-05-11T13:21:20.809Z,12.91
2019-05-11T13:23:52.120Z,12.91
2019-05-11T13:26:23.508Z,12.92
2019-05-11T13:28:54.808Z,12.94
2019-05-11T13:31:27.802Z,12.96
2019-05-11T13:33:59.297Z,12.98
2019-05-11T13:36:30.541Z,12.99
2019-05-11T13:39:01.900Z,12.99
2019-05-11T13:41:34.314Z,12.98
2019-05-11T13:44:07.966Z,12.96
2019-05-11T13:46:39.531Z,12.94
2019-05-11T13:49:10.842Z,12.93
2019-05-11T13:51:42.112Z,12.95
2019-05-11T13:54:13.375Z,12.94
2019-05-11T13:56:44.723Z,12.96
2019-05-11T13:59:16.018Z,12.98
2019-05-11T14:01:47.901Z,12.99
2019-05-11T14:04:19.320Z,13.01
2019-05-11T14:06:50.636Z,13.02
2019-05-11T14:09:21.914Z,13.02
2019-05-11T14:11:53.747Z,13.03
2019-05-11T14:14:25.110Z,13.05
2019-05-11T14:16:58.669Z,13.05
2019-05-11T14:19:29.409Z,13.06
2019-05-11T14:22:00.709Z,13.07
2019-05-11T14:24:31.992Z,13.07
2019-05-11T14:27:03.301Z,13.06
2019-05-11T14:29:34.684Z,13.04
2019-05-11T14:32:07.925Z,13.01
2019-05-11T14:34:38.986Z,12.99
2019-05-11T14:37:10.288Z,12.95
2019-05-11T14:39:41.575Z,12.94
2019-05-11T14:42:12.826Z,12.92
2019-05-11T14:44:44.247Z,12.92
2019-05-11T14:47:17.737Z,12.88
2019-05-11T14:49:48.466Z,12.83
2019-05-11T14:52:19.715Z,12.79
2019-05-11T14:54:51.016Z,12.78
2019-05-11T14:57:22.430Z,12.74
2019-05-11T14:59:53.709Z,12.72
2019-05-11T15:02:42.733Z,12.68
2019-05-11T15:05:14.830Z,12.64
2019-05-11T15:07:47.963Z,12.60
2019-05-11T15:10:19.293Z,12.57
2019-05-11T15:12:50.639Z,12.57
2019-05-11T15:15:21.879Z,12.52
2019-05-11T15:17:53.245Z,12.52
2019-05-11T15:20:24.569Z,12.47
2019-05-11T15:22:58.019Z,12.45
2019-05-11T15:25:29.075Z,12.41
2019-05-11T15:28:00.477Z,12.35
2019-05-11T15:30:31.797Z,12.33
2019-05-11T15:33:03.039Z,12.28
2019-05-11T15:35:34.321Z,12.22
2019-05-11T15:38:05.692Z,12.21
2019-05-11T15:40:38.275Z,12.18
2019-05-11T15:43:09.787Z,12.17
2019-05-11T15:45:41.067Z,12.14
2019-05-11T15:48:12.393Z,12.13
2019-05-11T15:50:43.622Z,12.12
2019-05-11T15:53:14.834Z,12.12
2019-05-11T15:55:46.083Z,12.12
2019-05-11T15:58:19.060Z,12.09
2019-05-11T16:00:50.322Z,12.05
2019-05-11T16:03:21.608Z,12.03
2019-05-11T16:05:52.877Z,12.01
2019-05-11T16:08:24.138Z,12.01
2019-05-11T16:10:57.649Z,12.02
2019-05-11T16:13:28.644Z,12.02
2019-05-11T16:15:59.855Z,12.02
2019-05-11T16:18:31.191Z,12.00
2019-05-11T16:21:02.542Z,12.02
2019-05-11T16:23:33.828Z,12.03
2019-05-11T16:26:05.160Z,12.04
2019-05-11T16:28:38.381Z,12.05
2019-05-11T16:31:09.492Z,12.06
2019-05-11T16:33:41.751Z,12.06
2019-05-11T16:36:13.009Z,12.05
2019-05-11T16:38:44.282Z,12.04
2019-05-11T16:41:17.889Z,12.03
2019-05-11T16:43:48.620Z,12.03
2019-05-11T16:46:19.923Z,12.03
2019-05-11T16:48:51.252Z,12.02
2019-05-11T16:51:22.505Z,12.02
2019-05-11T16:53:53.714Z,12.01
2019-05-11T16:56:24.985Z,11.98
2019-05-11T16:58:58.743Z,11.96
2019-05-11T17:01:29.340Z,11.90
2019-05-11T17:04:00.683Z,11.90
2019-05-11T17:06:32.315Z,11.87
2019-05-11T17:09:08.620Z,11.88
2019-05-11T17:11:39.392Z,11.87
2019-05-11T17:14:10.653Z,11.83
2019-05-11T17:16:41.968Z,11.82
2019-05-11T17:19:13.341Z,11.82
2019-05-11T17:21:44.639Z,11.81
2019-05-11T17:24:15.980Z,11.80
2019-05-11T17:26:47.820Z,11.79
2019-05-11T17:29:19.305Z,11.77
2019-05-11T17:31:50.654Z,11.78
2019-05-11T17:34:22.131Z,11.76
2019-05-11T17:36:56.931Z,11.76
2019-05-11T17:39:28.125Z,11.76
2019-05-11T17:41:59.516Z,11.74
2019-05-11T17:44:30.769Z,11.74
2019-05-11T17:47:02.442Z,11.74
2019-05-11T17:49:33.737Z,11.72
2019-05-11T17:52:05.035Z,11.72
2019-05-11T17:54:38.252Z,11.72
2019-05-11T17:57:09.401Z,11.71
2019-05-11T17:59:40.862Z,11.71
2019-05-11T18:02:12.146Z,11.71
2019-05-11T18:04:43.541Z,11.70
2019-05-11T18:07:25.220Z,11.70
2019-05-11T18:09:48.521Z,11.70
2019-05-11T18:12:19.760Z,11.69
2019-05-11T18:14:51.058Z,11.70
2019-05-11T18:17:22.291Z,11.68
2019-05-11T18:19:53.677Z,11.69
2019-05-11T18:22:24.949Z,11.69
2019-05-11T18:24:58.114Z,11.68
2019-05-11T18:27:29.290Z,11.67
2019-05-11T18:30:00.705Z,11.67
2019-05-11T18:32:31.989Z,11.66
2019-05-11T18:35:03.374Z,11.66
2019-05-11T18:37:38.693Z,11.66
2019-05-11T18:40:09.915Z,11.67
2019-05-11T18:42:41.310Z,11.67
2019-05-11T18:45:12.773Z,11.68
2019-05-11T18:47:44.022Z,11.67
2019-05-11T18:50:29.405Z,11.66
2019-05-11T18:52:49.084Z,11.66
2019-05-11T18:55:20.562Z,11.67
2019-05-11T18:57:52.000Z,11.66
2019-05-11T19:00:23.645Z,11.67
2019-05-11T19:02:58.111Z,11.67
2019-05-11T19:05:29.974Z,11.67
2019-05-11T19:08:01.420Z,11.67
2019-05-11T19:10:32.751Z,11.68
2019-05-11T19:13:04.275Z,11.69
2019-05-11T19:15:38.777Z,11.68
2019-05-11T19:18:11.123Z,11.68
2019-05-11T19:20:45.564Z,11.69
2019-05-11T19:23:15.831Z,11.69
2019-05-11T19:25:47.997Z,11.70
2019-05-11T19:28:19.857Z,11.70
2019-05-11T19:30:51.186Z,11.72
2019-05-11T19:33:22.557Z,11.74
2019-05-11T19:35:54.044Z,11.75
2019-05-11T19:38:25.352Z,11.78
2019-05-11T19:40:58.861Z,11.78
2019-05-11T19:43:30.752Z,11.79
2019-05-11T19:46:02.155Z,11.80
2019-05-11T19:48:33.502Z,11.82
2019-05-11T19:51:09.082Z,11.82
2019-05-11T19:53:39.025Z,11.84
2019-05-11T19:56:10.334Z,11.84
2019-05-11T19:58:41.569Z,11.85
2019-05-11T20:01:12.854Z,11.85
2019-05-11T20:03:44.186Z,11.86
2019-05-11T20:06:15.524Z,11.86
2019-05-11T20:08:47.038Z,11.87
2019-05-11T20:11:18.711Z,11.87
2019-05-11T20:13:50.364Z,11.87
2019-05-11T20:16:21.807Z,11.84
2019-05-11T20:18:53.150Z,11.85
2019-05-11T20:21:24.494Z,11.84
2019-05-11T20:23:57.832Z,11.84
2019-05-11T20:26:28.801Z,11.82
2019-05-11T20:29:00.214Z,11.81
2019-05-11T20:31:31.808Z,11.81
2019-05-11T20:34:03.196Z,11.80
2019-05-11T20:36:34.650Z,11.81
2019-05-11T20:39:07.847Z,11.81
2019-05-11T20:41:39.423Z,11.79
2019-05-11T20:44:10.873Z,11.79
2019-05-11T20:46:42.170Z,11.79
2019-05-11T20:49:13.539Z,11.78
2019-05-11T20:51:44.778Z,11.78
2019-05-11T20:54:17.655Z,11.79
2019-05-11T20:56:49.042Z,11.78
2019-05-11T20:59:20.400Z,11.78
2019-05-11T21:01:51.629Z,11.77
2019-05-11T21:04:23.367Z,11.76
2019-05-11T21:06:54.701Z,11.74
2019-05-11T21:09:25.937Z,11.74
2019-05-11T21:11:58.920Z,11.71
2019-05-11T21:14:30.488Z,11.70
2019-05-11T21:17:01.826Z,11.69
2019-05-11T21:19:33.109Z,11.68
2019-05-11T21:22:04.336Z,11.68
2019-05-11T21:24:35.724Z,11.67
2019-05-11T21:27:07.015Z,11.66
2019-05-11T21:29:38.802Z,11.65
2019-05-11T21:32:10.194Z,11.64
2019-05-11T21:34:41.489Z,11.63
2019-05-11T21:37:12.891Z,11.62
2019-05-11T21:39:44.124Z,11.58
2019-05-11T21:42:15.365Z,11.58
2019-05-11T21:44:46.672Z,11.57
2019-05-11T21:47:18.383Z,11.56
2019-05-11T21:49:49.864Z,11.55
2019-05-11T21:52:21.137Z,11.54
2019-05-11T21:54:52.419Z,11.54
2019-05-11T21:57:23.719Z,11.53
2019-05-11T21:59:55.042Z,11.52
2019-05-11T22:02:28.596Z,11.51
2019-05-11T22:05:02.947Z,11.52
2019-05-11T22:07:32.635Z,11.51
2019-05-11T22:10:05.427Z,11.51
2019-05-11T22:12:38.714Z,11.51
2019-05-11T22:15:10.455Z,11.50
2019-05-11T22:17:41.751Z,11.49
2019-05-11T22:20:13.004Z,11.48
2019-05-11T22:22:44.339Z,11.47
2019-05-11T22:25:18.025Z,11.48
2019-05-11T22:27:49.009Z,11.49
2019-05-11T22:30:20.392Z,11.49
2019-05-11T22:32:51.663Z,11.47
2019-05-11T22:35:23.384Z,11.46
2019-05-11T22:37:55.229Z,11.44
2019-05-11T22:40:28.062Z,11.44
2019-05-11T22:43:01.265Z,11.42
2019-05-11T22:45:32.699Z,11.41
2019-05-11T22:48:04.052Z,11.39
2019-05-11T22:50:35.321Z,11.36
2019-05-11T22:53:08.826Z,11.36
2019-05-11T22:55:39.696Z,11.34
2019-05-11T22:58:10.897Z,11.33
2019-05-11T23:00:43.804Z,11.30
2019-05-11T23:03:15.018Z,11.29
2019-05-11T23:05:47.748Z,11.26
2019-05-11T23:08:20.043Z,11.25
2019-05-11T23:10:51.342Z,11.22
2019-05-11T23:13:22.597Z,11.23
2019-05-11T23:15:53.889Z,11.22
2019-05-11T23:18:28.653Z,11.22
2019-05-11T23:20:59.270Z,11.21
2019-05-11T23:23:30.559Z,11.21
2019-05-11T23:26:01.892Z,11.19
2019-05-11T23:28:33.154Z,11.19
2019-05-11T23:31:04.508Z,11.19
2019-05-11T23:33:38.291Z,11.18
2019-05-11T23:36:08.695Z,11.17
2019-05-11T23:38:39.956Z,11.17
2019-05-11T23:41:23.667Z,11.17
2019-05-11T23:43:44.195Z,11.16
2019-05-11T23:46:17.494Z,11.17
2019-05-11T23:48:48.706Z,11.16
2019-05-11T23:51:19.987Z,11.15
2019-05-11T23:53:51.345Z,11.14
2019-05-11T23:56:22.728Z,11.14
2019-05-11T23:58:54.082Z,11.12
